createdAt,value
2022-11-13T00:02:06.069Z,8.55
2022-11-13T00:04:51.295Z,8.88
2022-11-13T00:07:36.875Z,8.13
2022-11-13T00:10:22.324Z,8.57
2022-11-13T00:13:07.699Z,8.68
2022-11-13T00:16:03.777Z,8.75
2022-11-13T00:18:49.252Z,8.30
2022-11-13T00:21:34.820Z,7.75
2022-11-13T00:24:19.875Z,8.65
2022-11-13T00:27:05.397Z,8.10
2022-11-13T00:29:50.766Z,8.88
2022-11-13T00:32:37.864Z,7.63
2022-11-13T00:35:23.331Z,7.55
2022-11-13T00:38:08.627Z,7.97
2022-11-13T00:40:54.258Z,7.50
2022-11-13T00:43:39.536Z,8.00
2022-11-13T00:46:24.887Z,7.93
2022-11-13T00:49:10.369Z,8.70
2022-11-13T00:51:55.519Z,7.35
2022-11-13T00:54:40.929Z,8.25
2022-11-13T00:57:26.054Z,7.93
2022-11-13T01:00:11.501Z,7.30
2022-11-13T01:02:58.121Z,7.15
2022-11-13T01:05:44.651Z,7.65
2022-11-13T01:08:30.102Z,7.40
2022-11-13T01:11:19.595Z,6.97
2022-11-13T01:14:04.993Z,6.85
2022-11-13T01:16:50.679Z,7.90
2022-11-13T01:19:36.098Z,7.40
2022-11-13T01:22:21.483Z,7.50
2022-11-13T01:25:06.951Z,7.30
2022-11-13T01:27:52.440Z,8.00
2022-11-13T01:30:38.725Z,7.47
2022-11-13T01:33:24.029Z,8.10
2022-11-13T01:36:13.419Z,7.97
2022-11-13T01:38:59.064Z,8.02
2022-11-13T01:41:44.160Z,7.82
2022-11-13T01:44:52.614Z,7.28
2022-11-13T01:47:37.971Z,7.25
2022-11-13T01:50:23.419Z,7.57
2022-11-13T01:53:09.013Z,7.43
2022-11-13T01:55:54.226Z,7.45
2022-11-13T01:58:40.205Z,7.57
2022-11-13T02:01:25.609Z,6.90
2022-11-13T02:04:11.069Z,6.28
2022-11-13T02:07:00.005Z,6.72
2022-11-13T02:09:49.921Z,7.13
2022-11-13T02:12:37.400Z,6.53
2022-11-13T02:15:24.521Z,6.38
2022-11-13T02:18:11.040Z,6.30
2022-11-13T02:21:09.840Z,6.15
2022-11-13T02:24:14.742Z,6.38
2022-11-13T02:27:01.920Z,6.35
2022-11-13T02:29:47.022Z,6.80
2022-11-13T02:32:32.445Z,6.15
2022-11-13T02:35:37.630Z,5.88
2022-11-13T02:38:23.624Z,6.15
2022-11-13T02:41:09.159Z,6.10
2022-11-13T02:43:54.284Z,5.70
2022-11-13T02:46:39.734Z,6.30
2022-11-13T02:49:25.111Z,6.22
2022-11-13T02:52:10.604Z,5.85
2022-11-13T02:54:56.102Z,6.15
2022-11-13T02:57:41.559Z,6.00
2022-11-13T03:00:27.195Z,6.60
2022-11-13T03:03:12.237Z,5.40
2022-11-13T03:05:57.683Z,5.57
2022-11-13T03:08:42.994Z,6.10
2022-11-13T03:11:28.462Z,5.45
2022-11-13T03:14:14.135Z,5.78
2022-11-13T03:16:59.175Z,6.25
2022-11-13T03:19:44.392Z,5.90
2022-11-13T03:22:29.452Z,6.22
2022-11-13T03:25:14.983Z,6.03
2022-11-13T03:28:00.561Z,5.55
2022-11-13T03:30:47.213Z,5.65
2022-11-13T03:33:32.725Z,6.03
2022-11-13T03:36:17.708Z,5.90
2022-11-13T03:39:03.221Z,5.85
2022-11-13T03:41:48.363Z,6.03
2022-11-13T03:44:33.392Z,5.72
2022-11-13T03:47:18.586Z,5.72
2022-11-13T03:50:04.030Z,5.15
2022-11-13T03:52:49.132Z,5.35
2022-11-13T03:55:34.382Z,5.65
2022-11-13T03:58:20.734Z,5.30
2022-11-13T04:01:05.985Z,5.15
2022-11-13T04:03:51.108Z,5.40
2022-11-13T04:06:36.555Z,5.75
2022-11-13T04:09:21.903Z,5.30
2022-11-13T04:12:07.376Z,5.63
2022-11-13T04:14:52.508Z,5.38
2022-11-13T04:17:37.824Z,5.10
2022-11-13T04:20:23.445Z,4.35
2022-11-13T04:23:12.495Z,5.70
2022-11-13T04:25:57.805Z,4.78
2022-11-13T04:28:43.441Z,5.38
2022-11-13T04:31:28.819Z,5.28
2022-11-13T04:34:14.327Z,5.10
2022-11-13T04:36:59.703Z,5.18
2022-11-13T04:39:45.341Z,4.70
2022-11-13T04:42:49.026Z,5.07
2022-11-13T04:45:34.369Z,4.50
2022-11-13T04:48:19.711Z,5.15
2022-11-13T04:51:05.371Z,4.85
2022-11-13T04:53:50.483Z,4.60
2022-11-13T04:56:35.912Z,5.40
2022-11-13T04:59:21.190Z,4.20
2022-11-13T05:02:06.767Z,4.13
2022-11-13T05:04:52.294Z,4.43
2022-11-13T05:07:37.733Z,4.53
2022-11-13T05:10:22.906Z,4.47
2022-11-13T05:13:08.251Z,4.38
2022-11-13T05:16:00.122Z,4.70
2022-11-13T05:18:45.510Z,4.88
2022-11-13T05:21:30.843Z,5.10
2022-11-13T05:24:16.191Z,4.72
2022-11-13T05:27:01.868Z,5.50
2022-11-13T05:29:46.920Z,4.45
2022-11-13T05:32:32.575Z,5.22
2022-11-13T05:35:18.044Z,4.80
2022-11-13T05:38:03.607Z,4.55
2022-11-13T05:40:49.078Z,4.60
2022-11-13T05:43:34.867Z,4.88
2022-11-13T05:46:24.065Z,4.43
2022-11-13T05:49:09.848Z,4.38
2022-11-13T05:51:55.492Z,4.35
2022-11-13T05:54:40.612Z,4.20
2022-11-13T05:57:25.968Z,4.60
2022-11-13T06:00:11.696Z,4.60
2022-11-13T06:02:57.277Z,4.70
2022-11-13T06:05:42.580Z,4.97
2022-11-13T06:08:28.461Z,4.90
2022-11-13T06:11:15.131Z,4.45
2022-11-13T06:14:00.975Z,5.00
2022-11-13T06:16:46.475Z,4.38
2022-11-13T06:19:31.597Z,4.15
2022-11-13T06:22:16.809Z,5.05
2022-11-13T06:25:02.137Z,4.68
2022-11-13T06:27:47.573Z,5.63
2022-11-13T06:30:32.898Z,5.15
2022-11-13T06:33:18.243Z,4.43
2022-11-13T06:36:04.512Z,4.75
2022-11-13T06:38:50.257Z,5.07
2022-11-13T06:41:35.755Z,4.45
2022-11-13T06:44:20.888Z,4.72
2022-11-13T06:47:06.309Z,5.00
2022-11-13T06:49:51.792Z,4.80
2022-11-13T06:52:37.095Z,4.72
2022-11-13T06:55:22.496Z,5.13
2022-11-13T06:58:07.999Z,4.50
2022-11-13T07:00:53.702Z,4.53
2022-11-13T07:03:39.476Z,4.65
2022-11-13T07:06:24.844Z,5.10
2022-11-13T07:09:10.201Z,5.28
2022-11-13T07:11:55.710Z,4.93
2022-11-13T07:14:40.979Z,5.50
2022-11-13T07:17:28.022Z,5.30
2022-11-13T07:20:13.095Z,5.53
2022-11-13T07:22:59.114Z,4.95
2022-11-13T07:25:44.548Z,5.00
2022-11-13T07:28:30.491Z,5.40
2022-11-13T07:31:16.863Z,5.00
2022-11-13T07:34:01.930Z,5.15
2022-11-13T07:36:47.414Z,5.05
2022-11-13T07:39:32.620Z,5.43
2022-11-13T07:42:17.790Z,4.68
2022-11-13T07:45:03.549Z,5.00
2022-11-13T07:47:49.002Z,5.65
2022-11-13T07:50:35.439Z,5.50
2022-11-13T07:53:21.320Z,6.07
2022-11-13T07:56:06.779Z,5.45
2022-11-13T07:58:52.069Z,4.93
2022-11-13T08:01:38.434Z,5.60
2022-11-13T08:04:23.581Z,5.53
2022-11-13T08:07:10.652Z,5.38
2022-11-13T08:09:56.163Z,5.32
2022-11-13T08:12:41.491Z,5.50
2022-11-13T08:15:27.102Z,5.78
2022-11-13T08:18:12.575Z,5.47
2022-11-13T08:21:00.349Z,5.85
2022-11-13T08:23:45.412Z,5.32
2022-11-13T08:26:30.893Z,5.60
2022-11-13T08:29:16.261Z,5.43
2022-11-13T08:32:01.700Z,6.00
2022-11-13T08:34:47.208Z,5.95
2022-11-13T08:37:33.012Z,5.35
2022-11-13T08:40:18.268Z,5.53
2022-11-13T08:43:04.558Z,5.50
2022-11-13T08:45:50.180Z,5.15
2022-11-13T08:48:35.553Z,5.85
2022-11-13T08:51:21.044Z,5.18
2022-11-13T08:54:06.712Z,5.72
2022-11-13T08:56:56.157Z,4.85
2022-11-13T08:59:43.277Z,5.15
2022-11-13T09:02:28.420Z,6.50
2022-11-13T09:05:14.212Z,5.10
2022-11-13T09:08:00.342Z,5.20
2022-11-13T09:10:45.763Z,5.00
2022-11-13T09:13:31.351Z,5.13
2022-11-13T09:16:16.739Z,5.28
2022-11-13T09:19:02.991Z,5.28
2022-11-13T09:21:48.092Z,6.03
2022-11-13T09:24:33.325Z,5.18
2022-11-13T09:27:18.768Z,4.63
2022-11-13T09:30:04.067Z,5.65
2022-11-13T09:32:52.607Z,4.85
2022-11-13T09:35:37.900Z,5.20
2022-11-13T09:38:23.493Z,5.68
2022-11-13T09:41:10.385Z,5.10
2022-11-13T09:44:00.024Z,5.55
2022-11-13T09:46:51.732Z,5.22
2022-11-13T09:49:39.969Z,5.47
2022-11-13T09:52:31.095Z,5.32
2022-11-13T09:55:17.766Z,5.60
2022-11-13T09:58:10.565Z,5.97
2022-11-13T10:00:56.064Z,5.20
2022-11-13T10:04:00.361Z,5.25
2022-11-13T10:06:57.918Z,5.13
2022-11-13T10:09:43.140Z,5.57
2022-11-13T10:12:30.241Z,5.22
2022-11-13T10:15:16.320Z,5.40
2022-11-13T10:18:13.049Z,4.90
2022-11-13T10:21:15.117Z,5.35
2022-11-13T10:24:03.425Z,5.43
2022-11-13T10:26:49.120Z,5.80
2022-11-13T10:29:35.356Z,5.55
2022-11-13T10:32:21.913Z,5.80
2022-11-13T10:35:07.203Z,5.70
2022-11-13T10:37:57.115Z,5.82
2022-11-13T10:40:42.304Z,5.40
2022-11-13T10:43:28.269Z,5.63
2022-11-13T10:46:19.386Z,5.80
2022-11-13T10:49:12.377Z,5.68
2022-11-13T10:51:58.820Z,5.20
2022-11-13T10:54:44.241Z,5.50
2022-11-13T10:57:30.089Z,5.38
2022-11-13T11:00:30.944Z,6.25
2022-11-13T11:03:18.017Z,5.82
2022-11-13T11:06:04.507Z,6.32
2022-11-13T11:08:49.874Z,5.45
2022-11-13T11:11:53.939Z,5.70
2022-11-13T11:14:42.569Z,5.90
2022-11-13T11:17:45.780Z,5.30
2022-11-13T11:20:30.930Z,5.25
2022-11-13T11:23:25.497Z,5.03
2022-11-13T11:26:21.636Z,6.15
2022-11-13T11:29:26.854Z,6.05
2022-11-13T11:32:15.999Z,5.68
2022-11-13T11:35:07.068Z,5.45
2022-11-13T11:38:01.152Z,5.55
2022-11-13T11:40:48.330Z,5.28
2022-11-13T11:43:42.822Z,5.82
2022-11-13T11:46:29.591Z,5.72
2022-11-13T11:49:15.041Z,5.80
2022-11-13T11:52:02.947Z,6.07
2022-11-13T11:54:53.484Z,5.53
2022-11-13T11:57:57.915Z,5.85
2022-11-13T12:00:54.712Z,5.68
2022-11-13T12:03:52.520Z,5.85
2022-11-13T12:06:55.687Z,6.38
2022-11-13T12:10:04.542Z,5.97
2022-11-13T12:12:58.828Z,6.03
2022-11-13T12:15:46.789Z,6.00
2022-11-13T12:18:50.517Z,5.75
2022-11-13T12:21:55.853Z,6.05
2022-11-13T12:24:59.573Z,6.18
2022-11-13T12:27:53.658Z,6.18
2022-11-13T12:30:50.996Z,5.93
2022-11-13T12:33:42.056Z,6.22
2022-11-13T12:36:27.929Z,5.95
2022-11-13T12:39:33.562Z,5.85
2022-11-13T12:42:18.606Z,6.20
2022-11-13T12:45:09.967Z,6.00
2022-11-13T12:47:55.532Z,6.22
2022-11-13T12:50:40.670Z,5.55
2022-11-13T12:53:29.224Z,6.30
2022-11-13T12:56:16.596Z,6.32
2022-11-13T12:59:30.437Z,6.50
2022-11-13T13:02:34.860Z,5.95
2022-11-13T13:05:32.161Z,6.13
2022-11-13T13:08:26.915Z,6.30
2022-11-13T13:11:15.329Z,6.63
2022-11-13T13:14:06.870Z,5.93
2022-11-13T13:16:52.120Z,6.22
2022-11-13T13:19:37.920Z,5.72
2022-11-13T13:22:29.792Z,6.53
2022-11-13T13:25:21.302Z,6.15
2022-11-13T13:28:09.437Z,6.75
2022-11-13T13:30:58.712Z,6.13
2022-11-13T13:33:52.652Z,6.55
2022-11-13T13:36:58.480Z,7.90
2022-11-13T13:40:02.339Z,6.07
2022-11-13T13:43:06.117Z,6.55
2022-11-13T13:45:51.283Z,6.55
2022-11-13T13:48:40.825Z,6.32
2022-11-13T13:51:41.078Z,6.68
2022-11-13T13:54:27.802Z,5.25
2022-11-13T13:57:14.740Z,6.03
2022-11-13T14:00:00.624Z,6.00
2022-11-13T14:02:47.061Z,6.10
2022-11-13T14:05:34.616Z,5.97
2022-11-13T14:08:21.742Z,5.78
2022-11-13T14:11:29.596Z,6.05
2022-11-13T14:14:19.903Z,6.38
2022-11-13T14:17:05.563Z,6.47
2022-11-13T14:19:51.778Z,6.55
2022-11-13T14:22:37.713Z,6.20
2022-11-13T14:25:25.414Z,6.07
2022-11-13T14:28:18.099Z,5.95
2022-11-13T14:31:06.641Z,5.78
2022-11-13T14:33:52.200Z,6.20
2022-11-13T14:36:38.307Z,5.82
2022-11-13T14:39:27.288Z,5.68
2022-11-13T14:42:23.224Z,6.25
2022-11-13T14:45:19.831Z,5.80
2022-11-13T14:48:18.874Z,6.07
2022-11-13T14:51:05.311Z,5.80
2022-11-13T14:53:57.189Z,5.40
2022-11-13T14:56:43.085Z,5.95
2022-11-13T14:59:29.359Z,5.63
2022-11-13T15:02:14.839Z,5.60
2022-11-13T15:05:00.040Z,5.72
2022-11-13T15:07:45.829Z,6.40
2022-11-13T15:10:31.785Z,5.95
2022-11-13T15:13:20.727Z,5.97
2022-11-13T15:16:07.159Z,6.22
2022-11-13T15:18:53.860Z,5.90
2022-11-13T15:21:39.788Z,6.10
2022-11-13T15:24:26.941Z,6.07
2022-11-13T15:27:16.082Z,5.72
2022-11-13T15:30:01.163Z,6.22
2022-11-13T15:32:48.943Z,6.07
2022-11-13T15:35:34.506Z,6.28
2022-11-13T15:38:19.703Z,5.63
2022-11-13T15:41:10.484Z,5.90
2022-11-13T15:43:56.331Z,5.55
2022-11-13T15:46:43.071Z,5.70
2022-11-13T15:49:28.719Z,5.93
2022-11-13T15:52:17.223Z,5.72
2022-11-13T15:55:03.192Z,6.10
2022-11-13T15:57:49.233Z,6.78
2022-11-13T16:00:35.057Z,6.30
2022-11-13T16:03:20.640Z,6.03
2022-11-13T16:06:11.292Z,6.82
2022-11-13T16:08:56.411Z,6.63
2022-11-13T16:11:42.177Z,6.50
2022-11-13T16:14:27.665Z,6.88
2022-11-13T16:17:14.358Z,6.97
2022-11-13T16:19:59.848Z,7.15
2022-11-13T16:22:45.485Z,6.78
2022-11-13T16:25:30.619Z,6.97
2022-11-13T16:28:16.675Z,7.18
2022-11-13T16:31:02.096Z,7.03
2022-11-13T16:33:47.625Z,6.63
2022-11-13T16:36:33.082Z,7.28
2022-11-13T16:39:18.517Z,6.80
2022-11-13T16:42:03.647Z,7.25
2022-11-13T16:44:48.941Z,7.45
2022-11-13T16:47:34.506Z,7.10
2022-11-13T16:50:21.625Z,6.80
2022-11-13T16:53:08.948Z,6.95
2022-11-13T16:55:55.096Z,6.80
2022-11-13T16:58:41.081Z,7.07
2022-11-13T17:01:29.392Z,6.53
2022-11-13T17:04:14.830Z,6.28
2022-11-13T17:07:00.499Z,6.68
2022-11-13T17:09:58.805Z,7.30
2022-11-13T17:12:50.864Z,6.82
2022-11-13T17:15:39.293Z,6.93
2022-11-13T17:18:24.699Z,7.47
2022-11-13T17:21:09.911Z,6.95
2022-11-13T17:24:04.520Z,7.55
2022-11-13T17:26:52.459Z,8.02
2022-11-13T17:29:38.960Z,7.80
2022-11-13T17:32:24.416Z,8.27
2022-11-13T17:35:11.652Z,7.68
2022-11-13T17:37:57.413Z,7.50
2022-11-13T17:40:43.519Z,7.45
2022-11-13T17:43:29.383Z,8.02
2022-11-13T17:46:16.817Z,7.47
2022-11-13T17:49:02.222Z,7.75
2022-11-13T17:51:47.322Z,8.20
2022-11-13T17:54:35.652Z,8.77
2022-11-13T17:57:26.583Z,8.30
2022-11-13T18:00:12.505Z,7.57
2022-11-13T18:02:57.739Z,7.72
2022-11-13T18:05:46.589Z,7.70
2022-11-13T18:08:32.268Z,8.00
2022-11-13T18:11:22.279Z,9.10
2022-11-13T18:14:08.595Z,8.50
2022-11-13T18:16:53.687Z,8.63
2022-11-13T18:19:38.843Z,8.10
2022-11-13T18:22:24.170Z,8.70
2022-11-13T18:25:09.534Z,8.13
2022-11-13T18:27:54.702Z,8.80
2022-11-13T18:30:39.813Z,8.98
2022-11-13T18:33:25.547Z,8.27
2022-11-13T18:36:10.718Z,7.65
2022-11-13T18:38:56.091Z,8.45
2022-11-13T18:41:41.107Z,8.25
2022-11-13T18:44:26.722Z,8.95
2022-11-13T18:47:12.129Z,8.77
2022-11-13T18:49:58.321Z,8.63
2022-11-13T18:52:43.809Z,8.07
2022-11-13T18:55:29.185Z,8.45
2022-11-13T18:58:14.433Z,8.55
2022-11-13T19:01:08.102Z,8.63
2022-11-13T19:06:59.465Z,8.40
2022-11-13T19:09:46.090Z,8.70
2022-11-13T19:12:31.523Z,8.20
2022-11-13T19:15:17.058Z,9.35
2022-11-13T19:18:02.568Z,9.25
2022-11-13T19:20:47.628Z,8.05
2022-11-13T19:23:33.068Z,8.52
2022-11-13T19:26:18.765Z,8.80
2022-11-13T19:29:04.183Z,8.52
2022-11-13T19:31:49.994Z,8.73
2022-11-13T19:34:35.375Z,8.95
2022-11-13T19:37:20.719Z,8.63
2022-11-13T19:40:06.553Z,8.70
2022-11-13T19:42:53.220Z,8.88
2022-11-13T19:45:38.623Z,8.30
2022-11-13T19:48:23.714Z,15.30
2022-11-13T19:51:13.897Z,8.65
2022-11-13T19:53:59.684Z,9.15
2022-11-13T19:56:45.109Z,9.10
2022-11-13T19:59:30.212Z,8.70
2022-11-13T20:02:15.601Z,8.40
2022-11-13T20:05:00.894Z,9.48
2022-11-13T20:07:46.548Z,10.02
2022-11-13T20:10:31.868Z,12.65
2022-11-13T20:13:17.286Z,12.57
2022-11-13T20:16:03.805Z,9.77
2022-11-13T20:18:49.872Z,10.10
2022-11-13T20:21:35.300Z,10.35
2022-11-13T20:24:20.525Z,10.82
2022-11-13T20:27:05.839Z,10.48
2022-11-13T20:29:51.513Z,10.43
2022-11-13T20:32:39.976Z,10.20
2022-11-13T20:35:25.536Z,10.55
2022-11-13T20:38:10.895Z,10.32
2022-11-13T20:40:56.394Z,11.27
2022-11-13T20:43:41.561Z,10.82
2022-11-13T20:46:26.722Z,10.80
2022-11-13T20:49:12.104Z,10.75
2022-11-13T20:51:57.533Z,10.82
2022-11-13T20:54:42.629Z,10.02
2022-11-13T20:57:27.829Z,11.25
2022-11-13T21:00:13.185Z,10.40
2022-11-13T21:02:58.379Z,11.65
2022-11-13T21:05:43.490Z,11.00
2022-11-13T21:08:29.244Z,10.85
2022-11-13T21:11:16.200Z,12.27
2022-11-13T21:14:01.413Z,11.70
2022-11-13T21:16:46.688Z,11.52
2022-11-13T21:19:32.054Z,11.10
2022-11-13T21:22:17.255Z,11.82
2022-11-13T21:25:02.768Z,12.23
2022-11-13T21:27:48.093Z,12.48
2022-11-13T21:30:33.604Z,12.48
2022-11-13T21:33:18.833Z,11.85
2022-11-13T21:36:08.130Z,13.15
2022-11-13T21:38:54.114Z,12.05
2022-11-13T21:41:39.440Z,11.73
2022-11-13T21:44:24.754Z,13.68
2022-11-13T21:47:13.088Z,12.65
2022-11-13T21:49:58.136Z,13.20
2022-11-13T21:52:43.433Z,12.98
2022-11-13T21:55:28.632Z,12.88
2022-11-13T21:58:14.845Z,12.65
2022-11-13T22:00:59.974Z,13.15
2022-11-13T22:03:45.409Z,13.27
2022-11-13T22:06:31.595Z,13.55
2022-11-13T22:09:25.874Z,12.75
2022-11-13T22:12:11.306Z,12.95
2022-11-13T22:14:56.676Z,12.43
2022-11-13T22:17:42.526Z,12.90
2022-11-13T22:20:27.606Z,12.70
2022-11-13T22:23:13.188Z,11.63
2022-11-13T22:26:02.251Z,12.45
2022-11-13T22:28:47.934Z,12.00
2022-11-13T22:31:33.830Z,13.68
2022-11-13T22:34:19.007Z,12.48
2022-11-13T22:37:04.463Z,12.65
2022-11-13T22:39:49.943Z,13.57
2022-11-13T22:42:35.395Z,13.68
2022-11-13T22:45:24.559Z,13.10
2022-11-13T22:48:10.734Z,13.70
2022-11-13T22:50:56.194Z,13.20
2022-11-13T22:53:42.579Z,13.23
2022-11-13T22:56:29.092Z,14.15
2022-11-13T22:59:14.232Z,13.55
2022-11-13T23:01:59.520Z,11.65
2022-11-13T23:04:44.794Z,14.27
2022-11-13T23:07:30.536Z,13.30
2022-11-13T23:10:15.991Z,13.95
2022-11-13T23:13:01.263Z,12.85
2022-11-13T23:15:46.756Z,13.63
2022-11-13T23:18:32.244Z,13.13
2022-11-13T23:21:17.864Z,14.50
2022-11-13T23:24:03.632Z,13.68
2022-11-13T23:26:48.846Z,13.43
2022-11-13T23:29:34.125Z,14.15
2022-11-13T23:32:19.540Z,14.07
2022-11-13T23:35:04.739Z,14.07
2022-11-13T23:37:50.242Z,13.93
2022-11-13T23:40:35.686Z,15.73
2022-11-13T23:43:21.648Z,15.15
2022-11-13T23:46:06.950Z,14.95
2022-11-13T23:48:52.602Z,14.23
2022-11-13T23:51:37.742Z,14.80
2022-11-13T23:54:23.208Z,14.32
2022-11-13T23:57:08.503Z,14.55
2022-11-13T23:59:53.898Z,15.23
